Terminal Aerodrome Forecast
Issued by NWS Boise, ID

Home | Current Version | Previous Version | Text Only | Print | Product List | Glossary On
Versions: 1 2 3 4 5 6 7 8 9 10 11 12 13 14 15 16 17 18 19 20 21 22 23 24 25 26 27 28 29 30
000
FTUS45 KBOI 042320
TAFBOI
TAF
KBOI 042320Z 0500/0524 33008KT P6SM FEW100 SCT250
     FM050200 VRB06KT P6SM VCSH SCT100 BKN200
     FM050500 13010KT P6SM -SHRA VCTS BKN080CB OVC100
     FM051800 31010KT P6SM BKN100 OVC200=

USA.gov is the U.S. government's official web portal to all federal, state and local government web resources and services.